sensor_id;sensor_type;location;lat;lon;timestamp;P1;durP1;ratioP1;P2;durP2;ratioP2
46050;SDS011;31786;43.364;25.142;2022-07-06T00:02:03;6.03;;;3.90;;
46050;SDS011;31786;43.364;25.142;2022-07-06T00:04:30;6.28;;;3.90;;
46050;SDS011;31786;43.364;25.142;2022-07-06T00:06:56;6.85;;;4.25;;
46050;SDS011;31786;43.364;25.142;2022-07-06T00:09:24;6.47;;;4.03;;
46050;SDS011;31786;43.364;25.142;2022-07-06T00:11:51;8.48;;;3.35;;
46050;SDS011;31786;43.364;25.142;2022-07-06T00:14:19;6.22;;;3.20;;
46050;SDS011;31786;43.364;25.142;2022-07-06T00:16:46;6.10;;;3.80;;
46050;SDS011;31786;43.364;25.142;2022-07-06T00:19:14;4.45;;;3.60;;
46050;SDS011;31786;43.364;25.142;2022-07-06T00:21:41;7.20;;;4.57;;
46050;SDS011;31786;43.364;25.142;2022-07-06T00:24:08;8.93;;;4.18;;
46050;SDS011;31786;43.364;25.142;2022-07-06T00:26:35;5.97;;;3.95;;
46050;SDS011;31786;43.364;25.142;2022-07-06T00:29:02;6.35;;;3.97;;
46050;SDS011;31786;43.364;25.142;2022-07-06T00:31:30;6.65;;;4.30;;
46050;SDS011;31786;43.364;25.142;2022-07-06T00:33:57;9.57;;;4.18;;
46050;SDS011;31786;43.364;25.142;2022-07-06T00:36:24;7.20;;;3.33;;
46050;SDS011;31786;43.364;25.142;2022-07-06T00:38:51;8.18;;;4.10;;
46050;SDS011;31786;43.364;25.142;2022-07-06T00:41:17;5.90;;;3.67;;
46050;SDS011;31786;43.364;25.142;2022-07-06T00:43:48;9.07;;;4.13;;
46050;SDS011;31786;43.364;25.142;2022-07-06T00:48:44;5.25;;;3.65;;
46050;SDS011;31786;43.364;25.142;2022-07-06T00:51:11;6.28;;;3.42;;
46050;SDS011;31786;43.364;25.142;2022-07-06T00:53:38;6.28;;;3.17;;
46050;SDS011;31786;43.364;25.142;2022-07-06T00:56:06;9.20;;;3.83;;
46050;SDS011;31786;43.364;25.142;2022-07-06T00:58:33;8.07;;;3.60;;
46050;SDS011;31786;43.364;25.142;2022-07-06T01:01:00;5.78;;;3.42;;
46050;SDS011;31786;43.364;25.142;2022-07-06T01:03:27;15.38;;;3.10;;
46050;SDS011;31786;43.364;25.142;2022-07-06T01:05:55;4.60;;;3.08;;
46050;SDS011;31786;43.364;25.142;2022-07-06T01:08:22;7.47;;;3.58;;
46050;SDS011;31786;43.364;25.142;2022-07-06T01:10:49;6.47;;;3.28;;
46050;SDS011;31786;43.364;25.142;2022-07-06T01:13:16;3.80;;;2.70;;
46050;SDS011;31786;43.364;25.142;2022-07-06T01:15:43;5.90;;;3.75;;
46050;SDS011;31786;43.364;25.142;2022-07-06T01:18:10;6.32;;;3.47;;
46050;SDS011;31786;43.364;25.142;2022-07-06T01:20:39;6.00;;;3.45;;
46050;SDS011;31786;43.364;25.142;2022-07-06T01:23:06;7.55;;;3.33;;
46050;SDS011;31786;43.364;25.142;2022-07-06T01:25:34;8.15;;;3.65;;
46050;SDS011;31786;43.364;25.142;2022-07-06T01:28:01;5.20;;;3.20;;
46050;SDS011;31786;43.364;25.142;2022-07-06T01:30:28;8.48;;;3.28;;
46050;SDS011;31786;43.364;25.142;2022-07-06T01:32:55;6.25;;;3.42;;
46050;SDS011;31786;43.364;25.142;2022-07-06T01:35:21;5.20;;;2.95;;
46050;SDS011;31786;43.364;25.142;2022-07-06T01:37:50;6.07;;;3.33;;
46050;SDS011;31786;43.364;25.142;2022-07-06T01:40:16;8.02;;;3.58;;
46050;SDS011;31786;43.364;25.142;2022-07-06T01:42:43;5.05;;;2.97;;
46050;SDS011;31786;43.364;25.142;2022-07-06T01:45:10;5.75;;;3.70;;
46050;SDS011;31786;43.364;25.142;2022-07-06T01:47:37;5.70;;;3.47;;
46050;SDS011;31786;43.364;25.142;2022-07-06T01:50:04;4.60;;;3.40;;
46050;SDS011;31786;43.364;25.142;2022-07-06T01:52:33;6.25;;;3.28;;
46050;SDS011;31786;43.364;25.142;2022-07-06T01:55:01;9.27;;;4.15;;
46050;SDS011;31786;43.364;25.142;2022-07-06T01:57:28;6.40;;;3.55;;
46050;SDS011;31786;43.364;25.142;2022-07-06T01:59:54;7.72;;;5.00;;
46050;SDS011;31786;43.364;25.142;2022-07-06T02:02:21;3.97;;;3.20;;
46050;SDS011;31786;43.364;25.142;2022-07-06T02:04:48;5.47;;;3.45;;
46050;SDS011;31786;43.364;25.142;2022-07-06T02:07:15;10.82;;;3.45;;
46050;SDS011;31786;43.364;25.142;2022-07-06T02:09:42;7.25;;;4.15;;
46050;SDS011;31786;43.364;25.142;2022-07-06T02:12:10;6.35;;;4.03;;
46050;SDS011;31786;43.364;25.142;2022-07-06T02:14:37;4.90;;;2.92;;
46050;SDS011;31786;43.364;25.142;2022-07-06T02:17:04;7.95;;;3.78;;
46050;SDS011;31786;43.364;25.142;2022-07-06T02:19:30;6.38;;;4.13;;
46050;SDS011;31786;43.364;25.142;2022-07-06T02:21:57;10.90;;;4.60;;
46050;SDS011;31786;43.364;25.142;2022-07-06T02:24:24;6.40;;;4.07;;
46050;SDS011;31786;43.364;25.142;2022-07-06T02:26:51;9.80;;;3.85;;
46050;SDS011;31786;43.364;25.142;2022-07-06T02:29:19;5.82;;;3.20;;
46050;SDS011;31786;43.364;25.142;2022-07-06T02:31:46;6.68;;;4.22;;
46050;SDS011;31786;43.364;25.142;2022-07-06T02:34:13;6.07;;;3.65;;
46050;SDS011;31786;43.364;25.142;2022-07-06T02:36:41;5.25;;;3.63;;
46050;SDS011;31786;43.364;25.142;2022-07-06T02:39:08;7.25;;;4.32;;
46050;SDS011;31786;43.364;25.142;2022-07-06T02:41:35;7.10;;;3.72;;
46050;SDS011;31786;43.364;25.142;2022-07-06T02:44:02;7.10;;;4.47;;
46050;SDS011;31786;43.364;25.142;2022-07-06T02:46:30;7.47;;;4.85;;
46050;SDS011;31786;43.364;25.142;2022-07-06T02:48:57;7.75;;;4.30;;
46050;SDS011;31786;43.364;25.142;2022-07-06T02:51:24;7.43;;;4.60;;
46050;SDS011;31786;43.364;25.142;2022-07-06T02:53:51;5.95;;;3.42;;
46050;SDS011;31786;43.364;25.142;2022-07-06T02:56:18;7.05;;;3.28;;
46050;SDS011;31786;43.364;25.142;2022-07-06T02:58:44;9.30;;;4.30;;
46050;SDS011;31786;43.364;25.142;2022-07-06T03:01:11;7.38;;;4.25;;
46050;SDS011;31786;43.364;25.142;2022-07-06T03:03:39;6.22;;;4.00;;
46050;SDS011;31786;43.364;25.142;2022-07-06T03:06:06;6.18;;;3.83;;
46050;SDS011;31786;43.364;25.142;2022-07-06T03:08:33;6.65;;;4.05;;
46050;SDS011;31786;43.364;25.142;2022-07-06T03:11:11;11.20;;;4.38;;
46050;SDS011;31786;43.364;25.142;2022-07-06T03:17:06;6.22;;;3.80;;
46050;SDS011;31786;43.364;25.142;2022-07-06T03:23:32;7.05;;;4.03;;
46050;SDS011;31786;43.364;25.142;2022-07-06T03:26:45;8.38;;;3.80;;
46050;SDS011;31786;43.364;25.142;2022-07-06T03:29:44;6.20;;;3.80;;
46050;SDS011;31786;43.364;25.142;2022-07-06T03:32:46;8.52;;;4.10;;
46050;SDS011;31786;43.364;25.142;2022-07-06T03:35:47;9.30;;;4.53;;
46050;SDS011;31786;43.364;25.142;2022-07-06T03:38:14;9.52;;;4.65;;
46050;SDS011;31786;43.364;25.142;2022-07-06T03:40:40;6.75;;;3.80;;
46050;SDS011;31786;43.364;25.142;2022-07-06T03:43:07;12.75;;;4.57;;
46050;SDS011;31786;43.364;25.142;2022-07-06T03:45:34;5.70;;;3.80;;
46050;SDS011;31786;43.364;25.142;2022-07-06T03:48:01;9.32;;;3.03;;
46050;SDS011;31786;43.364;25.142;2022-07-06T03:50:28;11.85;;;3.97;;
46050;SDS011;31786;43.364;25.142;2022-07-06T03:52:56;8.63;;;3.38;;
46050;SDS011;31786;43.364;25.142;2022-07-06T04:08:03;6.80;;;3.83;;
46050;SDS011;31786;43.364;25.142;2022-07-06T04:10:30;9.00;;;4.40;;
46050;SDS011;31786;43.364;25.142;2022-07-06T04:12:57;10.90;;;4.43;;
46050;SDS011;31786;43.364;25.142;2022-07-06T04:15:24;5.95;;;4.10;;
46050;SDS011;31786;43.364;25.142;2022-07-06T04:17:50;6.45;;;3.90;;
46050;SDS011;31786;43.364;25.142;2022-07-06T04:20:21;7.80;;;4.53;;
46050;SDS011;31786;43.364;25.142;2022-07-06T04:22:49;8.75;;;4.20;;
46050;SDS011;31786;43.364;25.142;2022-07-06T04:25:18;7.22;;;4.32;;
46050;SDS011;31786;43.364;25.142;2022-07-06T04:27:45;7.05;;;4.60;;
46050;SDS011;31786;43.364;25.142;2022-07-06T04:30:12;9.43;;;4.55;;
46050;SDS011;31786;43.364;25.142;2022-07-06T04:32:39;13.27;;;4.35;;
46050;SDS011;31786;43.364;25.142;2022-07-06T04:35:06;7.07;;;4.53;;
46050;SDS011;31786;43.364;25.142;2022-07-06T04:37:33;7.75;;;4.35;;
46050;SDS011;31786;43.364;25.142;2022-07-06T04:40:00;5.85;;;3.88;;
46050;SDS011;31786;43.364;25.142;2022-07-06T04:42:28;8.05;;;3.97;;
46050;SDS011;31786;43.364;25.142;2022-07-06T04:44:55;8.90;;;4.10;;
46050;SDS011;31786;43.364;25.142;2022-07-06T04:47:22;10.65;;;4.82;;
46050;SDS011;31786;43.364;25.142;2022-07-06T04:49:48;11.23;;;5.65;;
46050;SDS011;31786;43.364;25.142;2022-07-06T04:52:15;8.95;;;4.05;;
46050;SDS011;31786;43.364;25.142;2022-07-06T04:54:42;9.60;;;4.60;;
46050;SDS011;31786;43.364;25.142;2022-07-06T04:57:09;6.60;;;4.10;;
46050;SDS011;31786;43.364;25.142;2022-07-06T04:59:37;6.47;;;3.83;;
46050;SDS011;31786;43.364;25.142;2022-07-06T05:02:04;6.05;;;3.80;;
46050;SDS011;31786;43.364;25.142;2022-07-06T05:04:31;6.25;;;4.10;;
46050;SDS011;31786;43.364;25.142;2022-07-06T05:06:58;7.55;;;4.05;;
46050;SDS011;31786;43.364;25.142;2022-07-06T05:09:24;6.18;;;3.40;;
46050;SDS011;31786;43.364;25.142;2022-07-06T05:11:51;6.30;;;3.67;;
46050;SDS011;31786;43.364;25.142;2022-07-06T05:14:18;7.30;;;4.03;;
46050;SDS011;31786;43.364;25.142;2022-07-06T05:16:46;5.72;;;3.92;;
46050;SDS011;31786;43.364;25.142;2022-07-06T05:19:13;6.60;;;3.85;;
46050;SDS011;31786;43.364;25.142;2022-07-06T05:21:40;7.43;;;3.78;;
46050;SDS011;31786;43.364;25.142;2022-07-06T05:24:07;8.15;;;4.05;;
46050;SDS011;31786;43.364;25.142;2022-07-06T05:26:33;4.93;;;3.63;;
46050;SDS011;31786;43.364;25.142;2022-07-06T05:29:00;10.20;;;4.75;;
46050;SDS011;31786;43.364;25.142;2022-07-06T05:34:50;5.80;;;3.30;;
46050;SDS011;31786;43.364;25.142;2022-07-06T05:37:17;5.70;;;3.83;;
46050;SDS011;31786;43.364;25.142;2022-07-06T05:39:44;6.40;;;3.80;;
46050;SDS011;31786;43.364;25.142;2022-07-06T05:42:12;8.30;;;3.80;;
46050;SDS011;31786;43.364;25.142;2022-07-06T05:44:39;7.10;;;3.80;;
46050;SDS011;31786;43.364;25.142;2022-07-06T05:47:05;6.63;;;3.92;;
46050;SDS011;31786;43.364;25.142;2022-07-06T05:49:51;8.48;;;4.13;;
46050;SDS011;31786;43.364;25.142;2022-07-06T05:52:35;8.25;;;4.72;;
46050;SDS011;31786;43.364;25.142;2022-07-06T05:55:02;11.85;;;4.13;;
46050;SDS011;31786;43.364;25.142;2022-07-06T05:57:29;7.47;;;4.15;;
46050;SDS011;31786;43.364;25.142;2022-07-06T05:59:56;8.38;;;4.40;;
46050;SDS011;31786;43.364;25.142;2022-07-06T06:02:23;9.10;;;4.43;;
46050;SDS011;31786;43.364;25.142;2022-07-06T06:04:52;9.40;;;4.93;;
46050;SDS011;31786;43.364;25.142;2022-07-06T06:07:19;8.00;;;4.28;;
46050;SDS011;31786;43.364;25.142;2022-07-06T06:09:45;7.75;;;4.72;;
46050;SDS011;31786;43.364;25.142;2022-07-06T06:12:12;8.23;;;4.78;;
46050;SDS011;31786;43.364;25.142;2022-07-06T06:14:39;7.18;;;4.70;;
46050;SDS011;31786;43.364;25.142;2022-07-06T06:17:06;8.85;;;4.28;;
46050;SDS011;31786;43.364;25.142;2022-07-06T06:19:35;6.25;;;4.55;;
46050;SDS011;31786;43.364;25.142;2022-07-06T06:22:03;11.63;;;4.82;;
46050;SDS011;31786;43.364;25.142;2022-07-06T06:24:30;7.20;;;4.20;;
46050;SDS011;31786;43.364;25.142;2022-07-06T06:26:57;9.20;;;4.53;;
46050;SDS011;31786;43.364;25.142;2022-07-06T06:29:24;8.65;;;4.25;;
46050;SDS011;31786;43.364;25.142;2022-07-06T06:31:51;6.68;;;4.32;;
46050;SDS011;31786;43.364;25.142;2022-07-06T06:34:17;8.45;;;4.65;;
46050;SDS011;31786;43.364;25.142;2022-07-06T06:36:44;7.20;;;4.72;;
46050;SDS011;31786;43.364;25.142;2022-07-06T06:39:12;5.78;;;3.92;;
46050;SDS011;31786;43.364;25.142;2022-07-06T06:41:39;10.13;;;4.13;;
46050;SDS011;31786;43.364;25.142;2022-07-06T06:44:06;10.75;;;5.50;;
46050;SDS011;31786;43.364;25.142;2022-07-06T06:46:33;6.45;;;4.25;;
46050;SDS011;31786;43.364;25.142;2022-07-06T06:49:00;7.53;;;4.28;;
46050;SDS011;31786;43.364;25.142;2022-07-06T06:51:27;6.13;;;3.72;;
46050;SDS011;31786;43.364;25.142;2022-07-06T06:53:53;5.82;;;4.43;;
46050;SDS011;31786;43.364;25.142;2022-07-06T06:56:22;8.82;;;4.03;;
46050;SDS011;31786;43.364;25.142;2022-07-06T06:58:48;4.13;;;3.17;;
46050;SDS011;31786;43.364;25.142;2022-07-06T07:01:15;10.57;;;4.38;;
46050;SDS011;31786;43.364;25.142;2022-07-06T07:03:42;4.53;;;3.28;;
46050;SDS011;31786;43.364;25.142;2022-07-06T07:06:09;5.13;;;3.30;;
46050;SDS011;31786;43.364;25.142;2022-07-06T07:08:36;7.13;;;2.90;;
46050;SDS011;31786;43.364;25.142;2022-07-06T07:11:02;4.68;;;2.95;;
46050;SDS011;31786;43.364;25.142;2022-07-06T07:13:31;6.45;;;3.35;;
46050;SDS011;31786;43.364;25.142;2022-07-06T07:15:57;5.57;;;4.30;;
46050;SDS011;31786;43.364;25.142;2022-07-06T07:18:24;6.82;;;4.03;;
46050;SDS011;31786;43.364;25.142;2022-07-06T07:20:51;8.43;;;6.45;;
46050;SDS011;31786;43.364;25.142;2022-07-06T07:23:18;5.18;;;3.45;;
46050;SDS011;31786;43.364;25.142;2022-07-06T07:25:45;5.72;;;3.53;;
46050;SDS011;31786;43.364;25.142;2022-07-06T07:28:11;6.38;;;3.22;;
46050;SDS011;31786;43.364;25.142;2022-07-06T07:30:40;7.45;;;3.88;;
46050;SDS011;31786;43.364;25.142;2022-07-06T07:33:06;4.75;;;3.03;;
46050;SDS011;31786;43.364;25.142;2022-07-06T07:35:33;5.80;;;3.78;;
46050;SDS011;31786;43.364;25.142;2022-07-06T07:38:00;7.70;;;3.65;;
46050;SDS011;31786;43.364;25.142;2022-07-06T07:40:27;9.02;;;4.10;;
46050;SDS011;31786;43.364;25.142;2022-07-06T07:42:54;7.07;;;3.95;;
46050;SDS011;31786;43.364;25.142;2022-07-06T07:45:21;6.35;;;4.25;;
46050;SDS011;31786;43.364;25.142;2022-07-06T07:47:51;7.03;;;3.67;;
46050;SDS011;31786;43.364;25.142;2022-07-06T07:50:18;6.82;;;4.15;;
46050;SDS011;31786;43.364;25.142;2022-07-06T07:52:44;11.48;;;4.68;;
46050;SDS011;31786;43.364;25.142;2022-07-06T07:55:11;9.10;;;4.57;;
46050;SDS011;31786;43.364;25.142;2022-07-06T07:57:38;9.38;;;4.72;;
46050;SDS011;31786;43.364;25.142;2022-07-06T08:00:05;7.47;;;4.38;;
46050;SDS011;31786;43.364;25.142;2022-07-06T08:02:33;6.97;;;3.88;;
46050;SDS011;31786;43.364;25.142;2022-07-06T08:05:01;6.53;;;3.70;;
46050;SDS011;31786;43.364;25.142;2022-07-06T08:07:28;9.73;;;4.40;;
46050;SDS011;31786;43.364;25.142;2022-07-06T08:09:55;5.95;;;4.43;;
46050;SDS011;31786;43.364;25.142;2022-07-06T08:12:22;7.88;;;4.28;;
46050;SDS011;31786;43.364;25.142;2022-07-06T08:14:54;8.05;;;4.18;;
46050;SDS011;31786;43.364;25.142;2022-07-06T08:17:21;7.00;;;4.20;;
46050;SDS011;31786;43.364;25.142;2022-07-06T08:19:48;7.47;;;4.18;;
46050;SDS011;31786;43.364;25.142;2022-07-06T08:22:16;6.28;;;4.32;;
46050;SDS011;31786;43.364;25.142;2022-07-06T08:24:43;6.65;;;4.72;;
46050;SDS011;31786;43.364;25.142;2022-07-06T08:27:10;7.57;;;4.47;;
46050;SDS011;31786;43.364;25.142;2022-07-06T08:29:38;8.85;;;4.90;;
46050;SDS011;31786;43.364;25.142;2022-07-06T08:32:05;5.07;;;3.50;;
46050;SDS011;31786;43.364;25.142;2022-07-06T08:34:32;7.55;;;4.90;;
46050;SDS011;31786;43.364;25.142;2022-07-06T08:36:59;10.07;;;5.00;;
46050;SDS011;31786;43.364;25.142;2022-07-06T08:39:28;7.30;;;4.20;;
46050;SDS011;31786;43.364;25.142;2022-07-06T08:41:55;6.88;;;4.60;;
46050;SDS011;31786;43.364;25.142;2022-07-06T08:44:22;6.63;;;3.28;;
46050;SDS011;31786;43.364;25.142;2022-07-06T08:46:50;7.35;;;3.58;;
46050;SDS011;31786;43.364;25.142;2022-07-06T08:49:18;6.53;;;4.10;;
46050;SDS011;31786;43.364;25.142;2022-07-06T08:51:46;10.13;;;5.07;;
46050;SDS011;31786;43.364;25.142;2022-07-06T08:54:13;7.85;;;3.85;;
46050;SDS011;31786;43.364;25.142;2022-07-06T08:56:42;5.85;;;3.83;;
46050;SDS011;31786;43.364;25.142;2022-07-06T08:59:09;7.40;;;4.35;;
46050;SDS011;31786;43.364;25.142;2022-07-06T09:01:36;10.48;;;4.10;;
46050;SDS011;31786;43.364;25.142;2022-07-06T09:04:05;5.32;;;3.47;;
46050;SDS011;31786;43.364;25.142;2022-07-06T09:06:32;6.88;;;4.47;;
46050;SDS011;31786;43.364;25.142;2022-07-06T09:09:00;7.15;;;3.90;;
46050;SDS011;31786;43.364;25.142;2022-07-06T09:11:31;8.07;;;4.35;;
46050;SDS011;31786;43.364;25.142;2022-07-06T09:14:00;4.35;;;3.17;;
46050;SDS011;31786;43.364;25.142;2022-07-06T09:16:27;7.28;;;3.65;;
46050;SDS011;31786;43.364;25.142;2022-07-06T09:18:55;6.90;;;4.13;;
46050;SDS011;31786;43.364;25.142;2022-07-06T09:21:22;9.52;;;4.25;;
46050;SDS011;31786;43.364;25.142;2022-07-06T09:23:52;9.25;;;4.88;;
46050;SDS011;31786;43.364;25.142;2022-07-06T09:26:20;4.93;;;3.67;;
46050;SDS011;31786;43.364;25.142;2022-07-06T09:28:48;7.38;;;3.80;;
46050;SDS011;31786;43.364;25.142;2022-07-06T09:31:16;7.15;;;3.97;;
46050;SDS011;31786;43.364;25.142;2022-07-06T09:33:56;5.45;;;3.50;;
46050;SDS011;31786;43.364;25.142;2022-07-06T09:36:38;4.88;;;3.10;;
46050;SDS011;31786;43.364;25.142;2022-07-06T09:39:16;7.07;;;3.90;;
46050;SDS011;31786;43.364;25.142;2022-07-06T09:41:44;8.90;;;4.15;;
46050;SDS011;31786;43.364;25.142;2022-07-06T09:44:12;8.45;;;3.88;;
46050;SDS011;31786;43.364;25.142;2022-07-06T09:46:41;7.95;;;4.22;;
46050;SDS011;31786;43.364;25.142;2022-07-06T09:49:09;4.47;;;3.70;;
46050;SDS011;31786;43.364;25.142;2022-07-06T09:51:36;5.25;;;3.45;;
46050;SDS011;31786;43.364;25.142;2022-07-06T09:54:05;5.65;;;3.92;;
46050;SDS011;31786;43.364;25.142;2022-07-06T09:56:37;8.83;;;4.30;;
46050;SDS011;31786;43.364;25.142;2022-07-06T09:59:07;8.70;;;4.07;;
46050;SDS011;31786;43.364;25.142;2022-07-06T10:01:36;9.65;;;3.78;;
46050;SDS011;31786;43.364;25.142;2022-07-06T10:04:05;12.32;;;4.28;;
46050;SDS011;31786;43.364;25.142;2022-07-06T10:06:33;4.50;;;2.92;;
46050;SDS011;31786;43.364;25.142;2022-07-06T10:09:01;7.45;;;3.97;;
46050;SDS011;31786;43.364;25.142;2022-07-06T10:11:31;6.10;;;3.83;;
46050;SDS011;31786;43.364;25.142;2022-07-06T10:14:01;6.22;;;3.97;;
46050;SDS011;31786;43.364;25.142;2022-07-06T10:16:31;5.43;;;3.95;;
46050;SDS011;31786;43.364;25.142;2022-07-06T10:19:01;14.73;;;3.92;;
46050;SDS011;31786;43.364;25.142;2022-07-06T10:21:30;8.02;;;3.47;;
46050;SDS011;31786;43.364;25.142;2022-07-06T10:23:58;6.57;;;3.65;;
46050;SDS011;31786;43.364;25.142;2022-07-06T10:26:26;6.88;;;3.80;;
46050;SDS011;31786;43.364;25.142;2022-07-06T10:28:54;6.05;;;3.70;;
46050;SDS011;31786;43.364;25.142;2022-07-06T10:31:21;9.10;;;3.72;;
46050;SDS011;31786;43.364;25.142;2022-07-06T10:33:49;7.18;;;3.33;;
46050;SDS011;31786;43.364;25.142;2022-07-06T10:36:17;6.47;;;3.92;;
46050;SDS011;31786;43.364;25.142;2022-07-06T10:38:48;6.78;;;4.13;;
46050;SDS011;31786;43.364;25.142;2022-07-06T10:41:17;6.30;;;3.90;;
46050;SDS011;31786;43.364;25.142;2022-07-06T10:43:44;5.25;;;3.38;;
46050;SDS011;31786;43.364;25.142;2022-07-06T10:46:14;5.85;;;3.20;;
46050;SDS011;31786;43.364;25.142;2022-07-06T10:48:42;10.07;;;3.78;;
46050;SDS011;31786;43.364;25.142;2022-07-06T10:51:11;4.50;;;3.50;;
46050;SDS011;31786;43.364;25.142;2022-07-06T10:53:40;6.60;;;4.22;;
46050;SDS011;31786;43.364;25.142;2022-07-06T10:56:11;6.88;;;4.32;;
46050;SDS011;31786;43.364;25.142;2022-07-06T10:58:40;6.90;;;4.10;;
46050;SDS011;31786;43.364;25.142;2022-07-06T11:01:08;7.13;;;3.78;;
46050;SDS011;31786;43.364;25.142;2022-07-06T11:03:39;6.57;;;4.22;;
46050;SDS011;31786;43.364;25.142;2022-07-06T11:06:08;8.25;;;4.20;;
46050;SDS011;31786;43.364;25.142;2022-07-06T11:08:47;5.60;;;3.97;;
46050;SDS011;31786;43.364;25.142;2022-07-06T11:11:21;4.40;;;3.08;;
46050;SDS011;31786;43.364;25.142;2022-07-06T11:14:00;7.22;;;4.18;;
46050;SDS011;31786;43.364;25.142;2022-07-06T11:16:29;6.47;;;4.20;;
46050;SDS011;31786;43.364;25.142;2022-07-06T11:19:04;6.88;;;4.07;;
46050;SDS011;31786;43.364;25.142;2022-07-06T11:21:34;8.68;;;4.15;;
46050;SDS011;31786;43.364;25.142;2022-07-06T11:33:27;5.32;;;3.35;;
46050;SDS011;31786;43.364;25.142;2022-07-06T11:38:39;6.20;;;3.38;;
46050;SDS011;31786;43.364;25.142;2022-07-06T11:41:06;6.40;;;3.70;;
46050;SDS011;31786;43.364;25.142;2022-07-06T11:43:35;6.40;;;3.63;;
46050;SDS011;31786;43.364;25.142;2022-07-06T11:46:02;7.35;;;3.88;;
46050;SDS011;31786;43.364;25.142;2022-07-06T11:48:29;5.53;;;3.47;;
46050;SDS011;31786;43.364;25.142;2022-07-06T11:50:57;4.88;;;3.33;;
46050;SDS011;31786;43.364;25.142;2022-07-06T11:53:26;8.45;;;3.35;;
46050;SDS011;31786;43.364;25.142;2022-07-06T11:55:54;9.00;;;3.72;;
46050;SDS011;31786;43.364;25.142;2022-07-06T11:58:21;7.90;;;3.60;;
46050;SDS011;31786;43.364;25.142;2022-07-06T12:01:05;5.78;;;3.53;;
46050;SDS011;31786;43.364;25.142;2022-07-06T12:03:32;8.27;;;4.03;;
46050;SDS011;31786;43.364;25.142;2022-07-06T12:06:00;7.18;;;4.25;;
46050;SDS011;31786;43.364;25.142;2022-07-06T12:08:27;5.47;;;3.78;;
46050;SDS011;31786;43.364;25.142;2022-07-06T12:10:54;9.32;;;4.18;;
46050;SDS011;31786;43.364;25.142;2022-07-06T12:13:22;6.82;;;4.05;;
46050;SDS011;31786;43.364;25.142;2022-07-06T12:15:49;8.77;;;4.13;;
46050;SDS011;31786;43.364;25.142;2022-07-06T12:18:17;6.32;;;4.82;;
46050;SDS011;31786;43.364;25.142;2022-07-06T12:20:44;9.60;;;5.57;;
46050;SDS011;31786;43.364;25.142;2022-07-06T12:23:11;5.35;;;3.80;;
46050;SDS011;31786;43.364;25.142;2022-07-06T12:25:37;7.15;;;4.18;;
46050;SDS011;31786;43.364;25.142;2022-07-06T12:28:04;6.05;;;4.53;;
46050;SDS011;31786;43.364;25.142;2022-07-06T12:30:31;6.82;;;4.57;;
46050;SDS011;31786;43.364;25.142;2022-07-06T12:33:11;7.82;;;4.95;;
46050;SDS011;31786;43.364;25.142;2022-07-06T12:35:41;15.38;;;5.53;;
46050;SDS011;31786;43.364;25.142;2022-07-06T12:38:09;11.30;;;5.65;;
46050;SDS011;31786;43.364;25.142;2022-07-06T12:40:36;8.90;;;5.93;;
46050;SDS011;31786;43.364;25.142;2022-07-06T12:43:03;7.47;;;5.07;;
46050;SDS011;31786;43.364;25.142;2022-07-06T12:45:31;9.43;;;5.53;;
46050;SDS011;31786;43.364;25.142;2022-07-06T12:47:58;10.98;;;5.32;;
46050;SDS011;31786;43.364;25.142;2022-07-06T12:50:32;11.70;;;6.22;;
46050;SDS011;31786;43.364;25.142;2022-07-06T12:53:01;8.50;;;5.55;;
46050;SDS011;31786;43.364;25.142;2022-07-06T12:55:28;13.80;;;6.43;;
46050;SDS011;31786;43.364;25.142;2022-07-06T12:57:56;7.22;;;5.10;;
46050;SDS011;31786;43.364;25.142;2022-07-06T13:00:24;8.30;;;5.60;;
46050;SDS011;31786;43.364;25.142;2022-07-06T13:02:52;9.30;;;5.82;;
46050;SDS011;31786;43.364;25.142;2022-07-06T13:05:24;8.30;;;5.55;;
46050;SDS011;31786;43.364;25.142;2022-07-06T13:07:53;6.70;;;5.53;;
46050;SDS011;31786;43.364;25.142;2022-07-06T13:10:23;7.45;;;5.15;;
46050;SDS011;31786;43.364;25.142;2022-07-06T13:12:50;8.98;;;4.68;;
46050;SDS011;31786;43.364;25.142;2022-07-06T13:15:27;7.28;;;5.07;;
46050;SDS011;31786;43.364;25.142;2022-07-06T13:17:54;7.95;;;4.65;;
46050;SDS011;31786;43.364;25.142;2022-07-06T13:20:21;8.43;;;4.90;;
46050;SDS011;31786;43.364;25.142;2022-07-06T13:22:48;7.63;;;4.95;;
46050;SDS011;31786;43.364;25.142;2022-07-06T13:25:22;7.32;;;4.95;;
46050;SDS011;31786;43.364;25.142;2022-07-06T13:27:49;7.80;;;5.10;;
46050;SDS011;31786;43.364;25.142;2022-07-06T13:30:17;8.75;;;5.13;;
46050;SDS011;31786;43.364;25.142;2022-07-06T13:32:44;6.78;;;4.80;;
46050;SDS011;31786;43.364;25.142;2022-07-06T13:37:43;5.68;;;4.18;;
46050;SDS011;31786;43.364;25.142;2022-07-06T13:40:12;8.32;;;4.80;;
46050;SDS011;31786;43.364;25.142;2022-07-06T13:42:54;8.50;;;5.35;;
46050;SDS011;31786;43.364;25.142;2022-07-06T13:45:21;9.07;;;5.35;;
46050;SDS011;31786;43.364;25.142;2022-07-06T13:47:48;7.63;;;4.97;;
46050;SDS011;31786;43.364;25.142;2022-07-06T13:50:15;9.38;;;5.05;;
46050;SDS011;31786;43.364;25.142;2022-07-06T13:52:42;8.27;;;4.93;;
46050;SDS011;31786;43.364;25.142;2022-07-06T13:55:09;10.05;;;5.55;;
46050;SDS011;31786;43.364;25.142;2022-07-06T13:57:36;10.57;;;4.97;;
46050;SDS011;31786;43.364;25.142;2022-07-06T14:00:09;9.20;;;5.40;;
46050;SDS011;31786;43.364;25.142;2022-07-06T14:02:37;13.10;;;5.63;;
46050;SDS011;31786;43.364;25.142;2022-07-06T14:05:04;11.15;;;5.65;;
46050;SDS011;31786;43.364;25.142;2022-07-06T14:07:32;10.32;;;5.60;;
46050;SDS011;31786;43.364;25.142;2022-07-06T14:09:59;8.45;;;4.28;;
46050;SDS011;31786;43.364;25.142;2022-07-06T14:12:26;9.25;;;5.90;;
46050;SDS011;31786;43.364;25.142;2022-07-06T14:14:53;7.10;;;5.00;;
46050;SDS011;31786;43.364;25.142;2022-07-06T14:17:21;7.32;;;5.03;;
46050;SDS011;31786;43.364;25.142;2022-07-06T14:19:49;8.25;;;5.15;;
46050;SDS011;31786;43.364;25.142;2022-07-06T14:22:16;6.45;;;4.20;;
46050;SDS011;31786;43.364;25.142;2022-07-06T14:24:44;7.47;;;4.85;;
46050;SDS011;31786;43.364;25.142;2022-07-06T14:27:11;7.70;;;4.88;;
46050;SDS011;31786;43.364;25.142;2022-07-06T14:29:38;6.38;;;4.20;;
46050;SDS011;31786;43.364;25.142;2022-07-06T14:32:06;5.60;;;4.03;;
46050;SDS011;31786;43.364;25.142;2022-07-06T14:34:35;9.15;;;4.15;;
46050;SDS011;31786;43.364;25.142;2022-07-06T14:37:02;5.47;;;3.72;;
46050;SDS011;31786;43.364;25.142;2022-07-06T14:39:29;6.95;;;4.00;;
46050;SDS011;31786;43.364;25.142;2022-07-06T14:41:57;6.43;;;3.80;;
46050;SDS011;31786;43.364;25.142;2022-07-06T14:44:24;7.35;;;4.45;;
46050;SDS011;31786;43.364;25.142;2022-07-06T14:46:52;6.40;;;4.22;;
46050;SDS011;31786;43.364;25.142;2022-07-06T14:49:18;7.45;;;3.53;;
46050;SDS011;31786;43.364;25.142;2022-07-06T14:51:47;6.57;;;4.30;;
46050;SDS011;31786;43.364;25.142;2022-07-06T14:54:14;6.00;;;4.15;;
46050;SDS011;31786;43.364;25.142;2022-07-06T14:56:41;4.85;;;3.53;;
46050;SDS011;31786;43.364;25.142;2022-07-06T14:59:10;7.85;;;3.50;;
46050;SDS011;31786;43.364;25.142;2022-07-06T15:01:51;4.55;;;3.15;;
46050;SDS011;31786;43.364;25.142;2022-07-06T15:04:18;6.10;;;3.05;;
46050;SDS011;31786;43.364;25.142;2022-07-06T15:06:52;5.65;;;2.95;;
46050;SDS011;31786;43.364;25.142;2022-07-06T15:09:26;4.55;;;3.38;;
46050;SDS011;31786;43.364;25.142;2022-07-06T15:11:55;3.85;;;2.90;;
46050;SDS011;31786;43.364;25.142;2022-07-06T15:14:22;5.05;;;2.92;;
46050;SDS011;31786;43.364;25.142;2022-07-06T15:16:49;5.75;;;3.78;;
46050;SDS011;31786;43.364;25.142;2022-07-06T15:19:17;10.45;;;4.13;;
46050;SDS011;31786;43.364;25.142;2022-07-06T15:21:44;6.50;;;4.15;;